createdAt,value
2024-03-11T00:00:38.785Z,13.66
2024-03-11T00:03:29.082Z,14.29
2024-03-11T00:05:57.410Z,14.56
2024-03-11T00:08:27.018Z,14.67
2024-03-11T00:11:01.361Z,14.03
2024-03-11T00:13:35.783Z,13.29
2024-03-11T00:16:04.607Z,13.07
2024-03-11T00:18:35.164Z,14.01
2024-03-11T00:21:03.165Z,14.58
2024-03-11T00:23:31.281Z,14.97
2024-03-11T00:25:59.153Z,15.13
2024-03-11T00:28:29.219Z,14.39
2024-03-11T00:30:57.073Z,13.56
2024-03-11T00:33:24.953Z,12.93
2024-03-11T00:35:53.085Z,12.58
2024-03-11T00:38:21.009Z,13.09
2024-03-11T00:40:48.909Z,13.87
2024-03-11T00:43:17.258Z,14.61
2024-03-11T00:45:45.280Z,15.11
2024-03-11T00:48:13.381Z,14.66
2024-03-11T00:50:41.648Z,13.81
2024-03-11T00:53:10.016Z,13.13
2024-03-11T00:55:40.149Z,12.87
2024-03-11T00:58:08.060Z,13.80
2024-03-11T01:00:36.112Z,14.82
2024-03-11T01:03:04.652Z,15.09
2024-03-11T01:05:33.539Z,14.39
2024-03-11T01:08:01.920Z,13.63
2024-03-11T01:10:30.068Z,13.05
2024-03-11T01:12:57.960Z,12.98
2024-03-11T01:15:27.090Z,13.99
2024-03-11T01:17:56.898Z,14.97
2024-03-11T01:20:25.558Z,15.40
2024-03-11T01:22:54.096Z,14.64
2024-03-11T01:25:22.312Z,13.83
2024-03-11T01:27:50.850Z,13.20
2024-03-11T01:30:18.802Z,12.90
2024-03-11T01:32:47.990Z,13.56
2024-03-11T01:35:16.223Z,14.47
2024-03-11T01:37:44.539Z,15.18
2024-03-11T01:40:16.686Z,15.26
2024-03-11T01:42:45.240Z,14.43
2024-03-11T01:45:14.602Z,13.61
2024-03-11T01:47:44.603Z,13.05
2024-03-11T01:50:15.211Z,12.76
2024-03-11T01:52:50.416Z,13.44
2024-03-11T01:55:19.930Z,14.24
2024-03-11T01:57:51.810Z,14.73
2024-03-11T02:00:23.509Z,14.49
2024-03-11T02:02:56.081Z,13.75
2024-03-11T02:05:27.543Z,13.10
2024-03-11T02:08:02.925Z,12.65
2024-03-11T02:10:31.389Z,12.35
2024-03-11T02:13:00.904Z,12.73
2024-03-11T02:15:29.393Z,13.72
2024-03-11T02:17:57.779Z,14.39
2024-03-11T02:20:28.114Z,14.60
2024-03-11T02:22:57.520Z,13.98
2024-03-11T02:25:29.940Z,13.28
2024-03-11T02:27:59.909Z,12.71
2024-03-11T02:30:28.227Z,12.44
2024-03-11T02:32:56.714Z,12.59
2024-03-11T02:35:25.218Z,12.54
2024-03-11T02:37:53.442Z,12.41
2024-03-11T02:40:28.087Z,12.53
2024-03-11T02:42:57.880Z,12.88
2024-03-11T02:45:28.059Z,13.40
2024-03-11T02:47:56.288Z,13.55
2024-03-11T02:50:25.338Z,13.57
2024-03-11T02:52:53.301Z,13.59
2024-03-11T02:55:23.668Z,14.02
2024-03-11T02:57:52.609Z,14.70
2024-03-11T03:00:21.396Z,14.93
2024-03-11T03:02:51.650Z,14.24
2024-03-11T03:05:20.423Z,13.50
2024-03-11T03:07:48.516Z,12.94
2024-03-11T03:10:16.365Z,12.60
2024-03-11T03:12:44.344Z,12.62
2024-03-11T03:15:12.518Z,12.78
2024-03-11T03:17:40.996Z,13.19
2024-03-11T03:20:12.150Z,13.41
2024-03-11T03:22:40.757Z,13.29
2024-03-11T03:25:08.836Z,13.46
2024-03-11T03:27:36.970Z,13.72
2024-03-11T03:30:05.942Z,13.76
2024-03-11T03:32:34.713Z,14.40
2024-03-11T03:35:02.846Z,14.85
2024-03-11T03:37:31.115Z,14.31
2024-03-11T03:39:59.112Z,13.57
2024-03-11T03:42:28.456Z,13.02
2024-03-11T03:44:56.736Z,12.61
2024-03-11T03:47:25.164Z,12.57
2024-03-11T03:49:54.283Z,13.65
2024-03-11T03:52:22.454Z,14.71
2024-03-11T03:54:50.331Z,15.17
2024-03-11T03:57:18.492Z,14.58
2024-03-11T03:59:46.705Z,13.78
2024-03-11T04:02:14.900Z,13.17
2024-03-11T04:04:42.862Z,12.73
2024-03-11T04:07:10.856Z,12.47
2024-03-11T04:09:39.899Z,12.71
2024-03-11T04:12:08.412Z,13.63
2024-03-11T04:14:38.023Z,14.50
2024-03-11T04:17:07.518Z,14.88
2024-03-11T04:19:37.245Z,14.31
2024-03-11T04:22:05.514Z,13.59
2024-03-11T04:24:34.219Z,13.04
2024-03-11T04:27:03.625Z,12.61
2024-03-11T04:29:31.767Z,12.49
2024-03-11T04:32:00.143Z,13.09
2024-03-11T04:34:28.063Z,13.67
2024-03-11T04:36:56.092Z,13.84
2024-03-11T04:39:24.186Z,13.68
2024-03-11T04:41:52.376Z,13.61
2024-03-11T04:44:20.852Z,13.67
2024-03-11T04:46:48.808Z,14.08
2024-03-11T04:49:16.715Z,14.20
2024-03-11T04:51:44.906Z,14.23
2024-03-11T04:54:12.822Z,14.38
2024-03-11T04:56:40.717Z,14.42
2024-03-11T04:59:09.794Z,13.86
2024-03-11T05:01:38.090Z,13.29
2024-03-11T05:04:06.944Z,12.81
2024-03-11T05:06:35.051Z,12.61
2024-03-11T05:09:03.430Z,12.98
2024-03-11T05:11:31.803Z,13.02
2024-03-11T05:13:59.967Z,13.09
2024-03-11T05:16:28.039Z,13.05
2024-03-11T05:18:55.923Z,12.79
2024-03-11T05:21:26.245Z,12.57
2024-03-11T05:23:55.064Z,12.40
2024-03-11T05:26:24.109Z,12.25
2024-03-11T05:28:52.022Z,12.13
2024-03-11T05:31:19.920Z,12.07
2024-03-11T05:33:47.839Z,12.01
2024-03-11T05:36:15.810Z,11.94
2024-03-11T05:38:43.766Z,11.87
2024-03-11T05:41:11.769Z,11.83
2024-03-11T05:43:41.288Z,11.84
2024-03-11T05:46:09.131Z,11.89
2024-03-11T05:48:39.978Z,11.92
2024-03-11T05:51:08.336Z,11.91
2024-03-11T05:53:38.425Z,11.86
2024-03-11T05:56:12.206Z,12.39
2024-03-11T05:58:40.573Z,13.42
2024-03-11T06:01:08.530Z,14.23
2024-03-11T06:03:37.795Z,14.28
2024-03-11T06:06:06.110Z,14.28
2024-03-11T06:08:34.064Z,14.55
2024-03-11T06:11:02.102Z,14.80
2024-03-11T06:13:32.596Z,14.85
2024-03-11T06:16:01.536Z,14.35
2024-03-11T06:18:29.737Z,13.78
2024-03-11T06:20:58.149Z,13.34
2024-03-11T06:23:26.576Z,12.98
2024-03-11T06:25:55.657Z,12.87
2024-03-11T06:28:24.454Z,13.76
2024-03-11T06:30:52.394Z,14.74
2024-03-11T06:33:23.587Z,15.39
2024-03-11T06:35:51.695Z,15.61
2024-03-11T06:38:19.791Z,15.02
2024-03-11T06:40:48.198Z,14.35
2024-03-11T06:43:16.662Z,13.81
2024-03-11T06:45:44.743Z,13.40
2024-03-11T06:48:13.479Z,13.19
2024-03-11T06:50:41.541Z,13.82
2024-03-11T06:53:09.749Z,14.66
2024-03-11T06:55:39.802Z,15.20
2024-03-11T06:58:07.935Z,15.36
2024-03-11T07:00:35.864Z,14.87
2024-03-11T07:03:03.831Z,14.28
2024-03-11T07:05:34.023Z,13.81
2024-03-11T07:08:08.189Z,13.46
2024-03-11T07:10:36.644Z,13.41
2024-03-11T07:13:05.359Z,14.06
2024-03-11T07:15:33.366Z,14.71
2024-03-11T07:18:01.911Z,15.18
2024-03-11T07:20:29.875Z,15.46
2024-03-11T07:22:58.142Z,15.05
2024-03-11T07:25:28.563Z,14.51
2024-03-11T07:27:56.502Z,14.11
2024-03-11T07:30:24.688Z,13.90
2024-03-11T07:33:16.219Z,14.50
2024-03-11T07:35:44.735Z,15.37
2024-03-11T07:38:13.077Z,15.77
2024-03-11T07:40:43.551Z,15.41
2024-03-11T07:43:13.323Z,14.87
2024-03-11T07:45:41.807Z,14.48
2024-03-11T07:48:16.425Z,14.16
2024-03-11T07:50:44.365Z,13.90
2024-03-11T07:53:15.267Z,13.94
2024-03-11T07:55:43.798Z,14.90
2024-03-11T07:58:12.783Z,15.75
2024-03-11T08:00:43.802Z,16.08
2024-03-11T08:03:12.224Z,15.63
2024-03-11T08:05:40.188Z,15.15
2024-03-11T08:08:11.285Z,14.81
2024-03-11T08:10:41.852Z,14.53
2024-03-11T08:13:12.116Z,14.35
2024-03-11T08:15:40.591Z,14.22
2024-03-11T08:18:10.388Z,14.09
2024-03-11T08:20:38.719Z,14.14
2024-03-11T08:23:07.203Z,14.80
2024-03-11T08:25:36.476Z,15.33
2024-03-11T08:28:04.706Z,15.68
2024-03-11T08:30:32.780Z,16.49
2024-03-11T08:33:01.797Z,16.94
2024-03-11T08:35:30.475Z,16.44
2024-03-11T08:37:58.837Z,15.84
2024-03-11T08:40:26.753Z,15.39
2024-03-11T08:42:57.846Z,15.04
2024-03-11T08:45:29.842Z,14.78
2024-03-11T08:47:59.078Z,14.56
2024-03-11T08:50:27.972Z,14.40
2024-03-11T08:52:56.463Z,14.27
2024-03-11T08:55:24.665Z,14.21
2024-03-11T08:57:54.625Z,14.45
2024-03-11T09:00:28.649Z,14.83
2024-03-11T09:02:56.697Z,15.62
2024-03-11T09:05:24.798Z,16.33
2024-03-11T09:07:52.960Z,16.64
2024-03-11T09:10:21.326Z,16.25
2024-03-11T09:12:50.993Z,15.83
2024-03-11T09:15:20.781Z,15.52
2024-03-11T09:17:52.361Z,15.34
2024-03-11T09:20:23.539Z,15.26
2024-03-11T09:22:53.432Z,15.19
2024-03-11T09:25:26.462Z,15.13
2024-03-11T09:28:02.628Z,15.11
2024-03-11T09:30:34.665Z,15.14
2024-03-11T09:33:03.281Z,15.21
2024-03-11T09:35:31.401Z,15.31
2024-03-11T09:37:59.476Z,15.42
2024-03-11T09:40:31.192Z,15.56
2024-03-11T09:43:03.657Z,15.69
2024-03-11T09:45:36.574Z,15.81
2024-03-11T09:48:06.715Z,15.91
2024-03-11T09:50:36.955Z,16.00
2024-03-11T09:53:08.910Z,16.07
2024-03-11T09:55:38.395Z,16.17
2024-03-11T09:58:11.882Z,16.32
2024-03-11T10:00:50.433Z,16.45
2024-03-11T10:03:29.060Z,16.51
2024-03-11T10:05:59.757Z,16.63
2024-03-11T10:08:32.745Z,16.77
2024-03-11T10:11:16.031Z,16.90
2024-03-11T10:13:44.370Z,17.04
2024-03-11T10:16:19.054Z,17.17
2024-03-11T10:18:54.195Z,17.27
2024-03-11T10:21:22.542Z,17.31
2024-03-11T10:23:52.252Z,17.35
2024-03-11T10:26:20.518Z,17.34
2024-03-11T10:28:50.830Z,17.32
2024-03-11T10:31:29.055Z,17.34
2024-03-11T10:34:25.311Z,17.42
2024-03-11T10:36:57.943Z,17.46
2024-03-11T10:39:38.722Z,17.48
2024-03-11T10:42:16.732Z,17.51
2024-03-11T10:44:47.181Z,17.48
2024-03-11T10:47:23.507Z,17.46
2024-03-11T10:49:55.186Z,17.45
2024-03-11T10:52:24.892Z,17.44
2024-03-11T10:57:40.341Z,17.40
2024-03-11T11:00:18.059Z,17.43
2024-03-11T11:02:51.892Z,17.46
2024-03-11T11:05:25.760Z,17.45
2024-03-11T11:07:57.658Z,17.44
2024-03-11T11:10:31.109Z,17.46
2024-03-11T11:13:02.754Z,17.50
2024-03-11T11:15:31.064Z,17.54
2024-03-11T11:18:00.459Z,17.62
2024-03-11T11:20:32.155Z,17.72
2024-03-11T11:23:01.443Z,17.82
2024-03-11T11:25:43.333Z,17.89
2024-03-11T11:28:15.020Z,17.91
2024-03-11T11:30:46.440Z,17.91
2024-03-11T11:34:06.233Z,17.92
2024-03-11T11:36:41.584Z,17.91
2024-03-11T11:39:16.005Z,17.86
2024-03-11T11:41:53.456Z,17.81
2024-03-11T11:44:26.762Z,17.75
2024-03-11T11:46:56.470Z,17.68
2024-03-11T11:49:28.884Z,17.63
2024-03-11T11:51:58.064Z,17.62
2024-03-11T11:54:36.448Z,17.60
2024-03-11T11:57:06.499Z,17.58
2024-03-11T11:59:34.709Z,17.59
2024-03-11T12:02:02.648Z,17.62
2024-03-11T12:04:30.654Z,17.63
2024-03-11T12:06:59.740Z,17.65
2024-03-11T12:09:27.927Z,17.67
2024-03-11T12:11:59.834Z,17.67
2024-03-11T12:14:27.925Z,17.67
2024-03-11T12:17:06.020Z,17.65
2024-03-11T12:19:35.277Z,17.62
2024-03-11T12:22:03.504Z,17.62
2024-03-11T12:24:32.987Z,17.62
2024-03-11T12:27:00.997Z,17.62
2024-03-11T12:29:29.469Z,17.63
2024-03-11T12:31:58.163Z,17.65
2024-03-11T12:34:26.399Z,17.62
2024-03-11T12:36:56.750Z,17.62
2024-03-11T12:39:28.861Z,17.62
2024-03-11T12:41:58.694Z,17.64
2024-03-11T12:44:28.060Z,17.66
2024-03-11T12:46:57.853Z,17.72
2024-03-11T12:49:29.538Z,17.77
2024-03-11T12:52:13.919Z,17.78
2024-03-11T12:54:43.129Z,17.78
2024-03-11T12:57:12.437Z,17.82
2024-03-11T12:59:46.948Z,17.82
2024-03-11T13:02:21.858Z,17.76
2024-03-11T13:04:52.111Z,17.72
2024-03-11T13:07:21.278Z,17.71
2024-03-11T13:09:54.939Z,17.72
2024-03-11T13:12:23.554Z,17.76
2024-03-11T13:14:53.005Z,17.81
2024-03-11T13:17:23.949Z,17.89
2024-03-11T13:19:58.388Z,18.00
2024-03-11T13:22:31.534Z,18.11
2024-03-11T13:25:09.896Z,18.23
2024-03-11T13:27:37.994Z,18.36
2024-03-11T13:30:14.453Z,18.50
2024-03-11T13:32:42.733Z,18.68
2024-03-11T13:35:10.785Z,18.92
2024-03-11T13:37:39.683Z,19.12
2024-03-11T13:40:08.916Z,19.30
2024-03-11T13:42:37.813Z,19.40
2024-03-11T13:45:06.909Z,19.44
2024-03-11T13:47:34.889Z,19.47
2024-03-11T13:50:02.836Z,19.57
2024-03-11T13:52:31.555Z,19.72
2024-03-11T13:55:00.882Z,19.83
2024-03-11T13:57:28.896Z,19.83
2024-03-11T13:59:56.793Z,19.79
2024-03-11T14:02:25.623Z,19.77
2024-03-11T14:04:54.101Z,19.73
2024-03-11T14:07:24.002Z,19.68
2024-03-11T14:09:52.069Z,19.60
2024-03-11T14:12:20.101Z,19.51
2024-03-11T14:14:48.392Z,19.43
2024-03-11T14:17:16.548Z,19.39
2024-03-11T14:19:44.439Z,19.35
2024-03-11T14:22:12.306Z,19.29
2024-03-11T14:24:40.434Z,19.24
2024-03-11T14:27:08.340Z,19.26
2024-03-11T14:29:36.469Z,19.47
2024-03-11T14:32:11.197Z,19.92
2024-03-11T14:34:40.022Z,20.48
2024-03-11T14:37:08.320Z,20.75
2024-03-11T14:39:36.594Z,21.09
2024-03-11T14:42:04.680Z,21.74
2024-03-11T14:44:32.913Z,22.34
2024-03-11T14:47:01.024Z,22.64
2024-03-11T14:49:34.748Z,22.64
2024-03-11T14:52:04.611Z,22.52
2024-03-11T14:54:33.007Z,22.32
2024-03-11T14:57:02.632Z,22.18
2024-03-11T14:59:32.724Z,22.32
2024-03-11T15:02:02.587Z,22.76
2024-03-11T15:04:32.520Z,23.29
2024-03-11T15:07:01.199Z,23.76
2024-03-11T15:09:29.305Z,24.16
2024-03-11T15:11:58.887Z,24.57
2024-03-11T15:14:26.865Z,24.97
2024-03-11T15:17:01.628Z,25.10
2024-03-11T15:19:29.969Z,25.10
2024-03-11T15:21:58.367Z,25.30
2024-03-11T15:24:26.542Z,25.41
2024-03-11T15:26:54.799Z,25.48
2024-03-11T15:29:23.153Z,25.59
2024-03-11T15:31:51.890Z,25.73
2024-03-11T15:34:20.340Z,25.79
2024-03-11T15:36:49.051Z,25.76
2024-03-11T15:39:20.777Z,25.68
2024-03-11T15:41:50.509Z,25.55
2024-03-11T15:44:18.447Z,25.17
2024-03-11T15:46:46.534Z,24.54
2024-03-11T15:49:14.776Z,23.89
2024-03-11T15:51:43.236Z,23.28
2024-03-11T15:54:11.435Z,22.67
2024-03-11T15:56:39.393Z,22.14
2024-03-11T15:59:08.730Z,21.69
2024-03-11T16:01:37.567Z,21.31
2024-03-11T16:04:06.384Z,20.98
2024-03-11T16:06:34.396Z,20.65
2024-03-11T16:09:03.518Z,20.39
2024-03-11T16:11:32.559Z,20.18
2024-03-11T16:14:00.647Z,19.94
2024-03-11T16:16:29.190Z,19.66
2024-03-11T16:18:57.783Z,19.39
2024-03-11T16:21:26.276Z,19.14
2024-03-11T16:23:54.285Z,18.87
2024-03-11T16:26:22.351Z,18.58
2024-03-11T16:28:50.952Z,18.30
2024-03-11T16:31:21.934Z,18.09
2024-03-11T16:33:50.849Z,17.90
2024-03-11T16:36:18.910Z,17.70
2024-03-11T16:38:52.650Z,17.50
2024-03-11T16:41:21.165Z,17.31
2024-03-11T16:43:50.102Z,17.15
2024-03-11T16:46:18.043Z,16.98
2024-03-11T16:48:47.241Z,16.79
2024-03-11T16:51:18.564Z,16.60
2024-03-11T16:53:48.128Z,16.45
2024-03-11T16:56:16.775Z,16.32
2024-03-11T16:58:44.768Z,16.18
2024-03-11T17:01:16.106Z,16.05
2024-03-11T17:03:46.613Z,15.92
2024-03-11T17:06:15.626Z,15.80
2024-03-11T17:08:44.928Z,15.71
2024-03-11T17:11:13.797Z,15.63
2024-03-11T17:13:41.873Z,15.56
2024-03-11T17:16:10.191Z,15.50
2024-03-11T17:18:38.713Z,15.44
2024-03-11T17:21:11.373Z,15.37
2024-03-11T17:23:39.929Z,15.28
2024-03-11T17:26:09.851Z,15.22
2024-03-11T17:28:37.954Z,15.18
2024-03-11T17:31:06.315Z,15.11
2024-03-11T17:33:36.548Z,15.05
2024-03-11T17:36:05.869Z,14.98
2024-03-11T17:38:34.366Z,14.92
2024-03-11T17:41:02.437Z,14.93
2024-03-11T17:43:30.696Z,15.68
2024-03-11T17:46:00.351Z,16.45
2024-03-11T17:48:29.517Z,16.69
2024-03-11T17:50:59.060Z,16.41
2024-03-11T17:53:27.024Z,16.04
2024-03-11T17:55:56.127Z,15.77
2024-03-11T17:58:25.677Z,15.58
2024-03-11T18:00:54.558Z,15.42
2024-03-11T18:03:22.833Z,15.30
2024-03-11T18:05:52.570Z,15.17
2024-03-11T18:08:21.548Z,15.06
2024-03-11T18:10:50.637Z,14.97
2024-03-11T18:13:18.564Z,14.89
2024-03-11T18:15:47.547Z,14.95
2024-03-11T18:18:21.673Z,15.61
2024-03-11T18:20:52.842Z,16.03
2024-03-11T18:23:20.902Z,16.23
2024-03-11T18:25:53.184Z,16.45
2024-03-11T18:28:23.595Z,16.73
2024-03-11T18:30:52.305Z,16.71
2024-03-11T18:33:20.893Z,16.35
2024-03-11T18:35:49.506Z,15.99
2024-03-11T18:38:17.799Z,15.71
2024-03-11T18:40:48.290Z,15.49
2024-03-11T18:43:17.428Z,15.31
2024-03-11T18:45:49.095Z,15.15
2024-03-11T18:48:19.819Z,15.00
2024-03-11T18:50:48.684Z,14.88
2024-03-11T18:53:16.667Z,14.79
2024-03-11T18:55:45.313Z,14.73
2024-03-11T18:58:13.280Z,14.83
2024-03-11T19:00:42.151Z,14.96
2024-03-11T19:03:11.645Z,14.96
2024-03-11T19:05:39.651Z,14.96
2024-03-11T19:08:08.837Z,15.02
2024-03-11T19:10:36.771Z,15.52
2024-03-11T19:13:05.805Z,16.05
2024-03-11T19:15:34.732Z,16.36
2024-03-11T19:18:03.367Z,16.46
2024-03-11T19:20:32.258Z,16.29
2024-03-11T19:23:00.321Z,16.02
2024-03-11T19:25:29.864Z,15.68
2024-03-11T19:28:00.291Z,15.38
2024-03-11T19:30:29.908Z,15.14
2024-03-11T19:33:01.507Z,14.93
2024-03-11T19:35:30.340Z,14.78
2024-03-11T19:38:15.541Z,14.88
2024-03-11T19:41:04.251Z,15.39
2024-03-11T19:44:13.702Z,15.67
2024-03-11T19:47:12.123Z,15.64
2024-03-11T19:50:23.027Z,15.55
2024-03-11T19:53:19.268Z,15.73
2024-03-11T19:56:12.506Z,15.85
2024-03-11T19:59:18.221Z,16.28
2024-03-11T20:02:15.288Z,17.49
2024-03-11T20:05:22.210Z,17.85
2024-03-11T20:08:22.303Z,17.10
2024-03-11T20:11:27.902Z,16.48
2024-03-11T20:14:10.830Z,16.06
2024-03-11T20:16:53.860Z,15.75
2024-03-11T20:19:45.180Z,15.48
2024-03-11T20:22:42.483Z,15.24
2024-03-11T20:25:42.657Z,15.01
2024-03-11T20:28:33.670Z,15.29
2024-03-11T20:31:03.808Z,16.78
2024-03-11T20:33:32.602Z,17.55
2024-03-11T20:36:01.017Z,17.77
2024-03-11T20:38:29.080Z,17.23
2024-03-11T20:40:57.772Z,16.62
2024-03-11T20:43:25.708Z,16.17
2024-03-11T20:45:54.721Z,15.83
2024-03-11T20:48:22.837Z,15.55
2024-03-11T20:50:50.951Z,15.28
2024-03-11T20:53:20.357Z,15.05
2024-03-11T20:55:49.188Z,15.09
2024-03-11T20:58:17.196Z,16.18
2024-03-11T21:00:45.830Z,17.12
2024-03-11T21:03:16.636Z,17.49
2024-03-11T21:05:45.206Z,16.96
2024-03-11T21:08:13.247Z,16.31
2024-03-11T21:10:43.189Z,15.81
2024-03-11T21:13:11.563Z,15.42
2024-03-11T21:15:41.255Z,15.10
2024-03-11T21:18:13.474Z,15.10
2024-03-11T21:20:41.427Z,16.08
2024-03-11T21:23:09.562Z,16.95
2024-03-11T21:25:53.041Z,17.41
2024-03-11T21:28:22.426Z,16.88
2024-03-11T21:30:54.268Z,16.26
2024-03-11T21:33:27.175Z,15.79
2024-03-11T21:35:55.675Z,15.42
2024-03-11T21:38:29.329Z,15.13
2024-03-11T21:40:59.546Z,15.07
2024-03-11T21:43:28.043Z,15.41
2024-03-11T21:45:56.032Z,15.46
2024-03-11T21:48:24.300Z,15.36
2024-03-11T21:50:52.555Z,15.24
2024-03-11T21:53:21.485Z,15.08
2024-03-11T21:55:49.949Z,14.94
2024-03-11T21:58:17.967Z,14.84
2024-03-11T22:00:45.991Z,14.80
2024-03-11T22:03:13.929Z,14.75
2024-03-11T22:05:42.328Z,14.65
2024-03-11T22:08:11.367Z,14.55
2024-03-11T22:10:39.290Z,14.46
2024-03-11T22:13:07.751Z,14.35
2024-03-11T22:15:36.286Z,14.24
2024-03-11T22:18:05.519Z,14.11
2024-03-11T22:20:33.589Z,13.97
2024-03-11T22:23:01.530Z,13.86
2024-03-11T22:25:29.513Z,13.81
2024-03-11T22:27:57.816Z,13.80
2024-03-11T22:30:25.899Z,13.81
2024-03-11T22:32:53.969Z,13.80
2024-03-11T22:35:22.202Z,13.76
2024-03-11T22:37:50.272Z,13.72
2024-03-11T22:40:18.447Z,13.62
2024-03-11T22:42:48.459Z,13.52
2024-03-11T22:45:16.911Z,13.42
2024-03-11T22:47:45.284Z,13.31
2024-03-11T22:50:13.350Z,13.22
2024-03-11T22:52:41.303Z,13.11
2024-03-11T22:55:09.784Z,13.04
2024-03-11T22:57:38.272Z,13.00
2024-03-11T23:00:26.434Z,12.95
2024-03-11T23:02:55.223Z,12.95
2024-03-11T23:05:23.200Z,12.94
2024-03-11T23:07:51.239Z,12.92
2024-03-11T23:10:19.639Z,12.96
2024-03-11T23:12:50.396Z,13.06
2024-03-11T23:15:23.830Z,13.11
2024-03-11T23:17:52.828Z,13.08
2024-03-11T23:20:22.805Z,13.09
2024-03-11T23:22:51.487Z,13.07
2024-03-11T23:25:22.978Z,13.06
2024-03-11T23:27:58.713Z,13.07
2024-03-11T23:30:29.285Z,13.09
2024-03-11T23:32:57.684Z,13.15
2024-03-11T23:35:29.183Z,13.34
2024-03-11T23:37:59.298Z,13.41
2024-03-11T23:40:27.387Z,13.32
2024-03-11T23:42:56.762Z,13.28
2024-03-11T23:45:24.776Z,13.19
2024-03-11T23:47:53.343Z,13.15
2024-03-11T23:50:22.390Z,13.06
2024-03-11T23:52:51.645Z,12.99
2024-03-11T23:55:21.248Z,12.94
2024-03-11T23:57:49.529Z,12.93
